sensor_id;sensor_type;location;lat;lon;timestamp;P1;durP1;ratioP1;P2;durP2;ratioP2
70388;SDS011;58659;49.050;8.530;2023-09-12T00:00:37;10.90;;;4.80;;
70388;SDS011;58659;49.050;8.530;2023-09-12T00:03:02;9.00;;;4.53;;
70388;SDS011;58659;49.050;8.530;2023-09-12T00:05:28;8.30;;;4.20;;
70388;SDS011;58659;49.050;8.530;2023-09-12T00:07:53;11.50;;;4.83;;
70388;SDS011;58659;49.050;8.530;2023-09-12T00:10:18;9.30;;;4.93;;
70388;SDS011;58659;49.050;8.530;2023-09-12T00:12:44;8.30;;;4.63;;
70388;SDS011;58659;49.050;8.530;2023-09-12T00:15:09;10.77;;;4.70;;
70388;SDS011;58659;49.050;8.530;2023-09-12T00:17:34;8.57;;;4.40;;
70388;SDS011;58659;49.050;8.530;2023-09-12T00:19:59;11.97;;;4.80;;
70388;SDS011;58659;49.050;8.530;2023-09-12T00:22:24;7.50;;;4.50;;
70388;SDS011;58659;49.050;8.530;2023-09-12T00:24:50;10.73;;;4.50;;
70388;SDS011;58659;49.050;8.530;2023-09-12T00:27:15;6.73;;;4.17;;
70388;SDS011;58659;49.050;8.530;2023-09-12T00:29:40;10.13;;;4.50;;
70388;SDS011;58659;49.050;8.530;2023-09-12T00:32:05;13.13;;;4.23;;
70388;SDS011;58659;49.050;8.530;2023-09-12T00:34:30;8.00;;;4.37;;
70388;SDS011;58659;49.050;8.530;2023-09-12T00:36:56;13.27;;;4.43;;
70388;SDS011;58659;49.050;8.530;2023-09-12T00:39:21;8.87;;;4.60;;
70388;SDS011;58659;49.050;8.530;2023-09-12T00:41:46;10.17;;;4.90;;
70388;SDS011;58659;49.050;8.530;2023-09-12T00:44:11;10.27;;;4.50;;
70388;SDS011;58659;49.050;8.530;2023-09-12T00:46:36;7.87;;;4.27;;
70388;SDS011;58659;49.050;8.530;2023-09-12T00:49:02;15.33;;;5.03;;
70388;SDS011;58659;49.050;8.530;2023-09-12T00:51:28;10.60;;;4.57;;
70388;SDS011;58659;49.050;8.530;2023-09-12T00:53:54;8.93;;;5.07;;
70388;SDS011;58659;49.050;8.530;2023-09-12T00:56:20;11.53;;;5.27;;
70388;SDS011;58659;49.050;8.530;2023-09-12T00:58:45;11.40;;;4.90;;
70388;SDS011;58659;49.050;8.530;2023-09-12T01:01:11;11.03;;;4.80;;
70388;SDS011;58659;49.050;8.530;2023-09-12T01:03:36;8.80;;;4.43;;
70388;SDS011;58659;49.050;8.530;2023-09-12T01:06:01;9.30;;;4.47;;
70388;SDS011;58659;49.050;8.530;2023-09-12T01:08:27;6.07;;;4.00;;
70388;SDS011;58659;49.050;8.530;2023-09-12T01:10:52;7.63;;;3.93;;
70388;SDS011;58659;49.050;8.530;2023-09-12T01:13:20;9.23;;;4.50;;
70388;SDS011;58659;49.050;8.530;2023-09-12T01:15:45;7.80;;;4.43;;
70388;SDS011;58659;49.050;8.530;2023-09-12T01:18:10;10.87;;;4.40;;
70388;SDS011;58659;49.050;8.530;2023-09-12T01:20:36;12.23;;;4.70;;
70388;SDS011;58659;49.050;8.530;2023-09-12T01:25:47;15.17;;;4.80;;
70388;SDS011;58659;49.050;8.530;2023-09-12T01:28:20;9.07;;;4.33;;
70388;SDS011;58659;49.050;8.530;2023-09-12T01:30:47;9.80;;;4.33;;
70388;SDS011;58659;49.050;8.530;2023-09-12T01:33:13;9.27;;;4.23;;
70388;SDS011;58659;49.050;8.530;2023-09-12T01:35:39;10.20;;;4.40;;
70388;SDS011;58659;49.050;8.530;2023-09-12T01:38:04;8.83;;;4.67;;
70388;SDS011;58659;49.050;8.530;2023-09-12T01:40:34;7.53;;;4.73;;
70388;SDS011;58659;49.050;8.530;2023-09-12T01:42:59;10.43;;;4.43;;
70388;SDS011;58659;49.050;8.530;2023-09-12T01:45:25;9.97;;;4.73;;
70388;SDS011;58659;49.050;8.530;2023-09-12T01:47:51;11.97;;;4.43;;
70388;SDS011;58659;49.050;8.530;2023-09-12T01:50:16;11.13;;;4.93;;
70388;SDS011;58659;49.050;8.530;2023-09-12T01:52:42;8.13;;;4.73;;
70388;SDS011;58659;49.050;8.530;2023-09-12T01:55:07;8.27;;;4.57;;
70388;SDS011;58659;49.050;8.530;2023-09-12T01:57:36;8.83;;;4.50;;
70388;SDS011;58659;49.050;8.530;2023-09-12T02:00:02;9.87;;;4.60;;
70388;SDS011;58659;49.050;8.530;2023-09-12T02:02:27;11.03;;;4.40;;
70388;SDS011;58659;49.050;8.530;2023-09-12T02:07:29;9.37;;;4.77;;
70388;SDS011;58659;49.050;8.530;2023-09-12T02:09:56;10.47;;;5.33;;
70388;SDS011;58659;49.050;8.530;2023-09-12T02:12:21;9.23;;;4.53;;
70388;SDS011;58659;49.050;8.530;2023-09-12T02:14:46;8.83;;;4.77;;
70388;SDS011;58659;49.050;8.530;2023-09-12T02:17:11;8.13;;;4.63;;
70388;SDS011;58659;49.050;8.530;2023-09-12T02:19:36;8.37;;;4.57;;
70388;SDS011;58659;49.050;8.530;2023-09-12T02:22:02;9.87;;;5.00;;
70388;SDS011;58659;49.050;8.530;2023-09-12T02:24:27;7.90;;;4.80;;
70388;SDS011;58659;49.050;8.530;2023-09-12T02:26:52;9.33;;;5.00;;
70388;SDS011;58659;49.050;8.530;2023-09-12T02:29:18;9.23;;;4.60;;
70388;SDS011;58659;49.050;8.530;2023-09-12T02:31:43;9.07;;;4.50;;
70388;SDS011;58659;49.050;8.530;2023-09-12T02:34:08;6.93;;;4.40;;
70388;SDS011;58659;49.050;8.530;2023-09-12T02:36:33;8.80;;;4.37;;
70388;SDS011;58659;49.050;8.530;2023-09-12T02:38:58;10.87;;;5.33;;
70388;SDS011;58659;49.050;8.530;2023-09-12T02:41:23;9.87;;;4.70;;
70388;SDS011;58659;49.050;8.530;2023-09-12T02:43:49;10.37;;;4.93;;
70388;SDS011;58659;49.050;8.530;2023-09-12T02:46:14;10.27;;;4.83;;
70388;SDS011;58659;49.050;8.530;2023-09-12T02:48:39;7.97;;;4.90;;
70388;SDS011;58659;49.050;8.530;2023-09-12T02:51:04;10.47;;;5.60;;
70388;SDS011;58659;49.050;8.530;2023-09-12T02:53:29;16.27;;;5.20;;
70388;SDS011;58659;49.050;8.530;2023-09-12T02:55:55;11.10;;;5.27;;
70388;SDS011;58659;49.050;8.530;2023-09-12T02:58:20;11.17;;;4.73;;
70388;SDS011;58659;49.050;8.530;2023-09-12T03:00:45;13.47;;;5.37;;
70388;SDS011;58659;49.050;8.530;2023-09-12T03:03:10;7.90;;;4.93;;
70388;SDS011;58659;49.050;8.530;2023-09-12T03:05:36;10.87;;;4.80;;
70388;SDS011;58659;49.050;8.530;2023-09-12T03:08:01;8.47;;;4.77;;
70388;SDS011;58659;49.050;8.530;2023-09-12T03:10:26;11.57;;;5.23;;
70388;SDS011;58659;49.050;8.530;2023-09-12T03:12:51;9.70;;;5.40;;
70388;SDS011;58659;49.050;8.530;2023-09-12T03:15:16;10.10;;;5.53;;
70388;SDS011;58659;49.050;8.530;2023-09-12T03:17:42;12.37;;;5.43;;
70388;SDS011;58659;49.050;8.530;2023-09-12T03:20:07;9.17;;;4.77;;
70388;SDS011;58659;49.050;8.530;2023-09-12T03:22:33;14.70;;;5.40;;
70388;SDS011;58659;49.050;8.530;2023-09-12T03:25:02;12.73;;;5.57;;
70388;SDS011;58659;49.050;8.530;2023-09-12T03:27:28;12.30;;;5.47;;
70388;SDS011;58659;49.050;8.530;2023-09-12T03:29:53;13.90;;;5.47;;
70388;SDS011;58659;49.050;8.530;2023-09-12T03:32:18;10.70;;;5.43;;
70388;SDS011;58659;49.050;8.530;2023-09-12T03:34:43;10.87;;;5.80;;
70388;SDS011;58659;49.050;8.530;2023-09-12T03:37:08;11.90;;;5.20;;
70388;SDS011;58659;49.050;8.530;2023-09-12T03:39:34;12.50;;;5.63;;
70388;SDS011;58659;49.050;8.530;2023-09-12T03:41:59;11.30;;;5.23;;
70388;SDS011;58659;49.050;8.530;2023-09-12T03:44:24;11.17;;;5.27;;
70388;SDS011;58659;49.050;8.530;2023-09-12T03:46:49;13.63;;;5.90;;
70388;SDS011;58659;49.050;8.530;2023-09-12T03:49:14;9.13;;;5.00;;
70388;SDS011;58659;49.050;8.530;2023-09-12T03:51:39;9.67;;;4.93;;
70388;SDS011;58659;49.050;8.530;2023-09-12T03:54:05;9.17;;;5.33;;
70388;SDS011;58659;49.050;8.530;2023-09-12T03:56:30;8.27;;;4.87;;
70388;SDS011;58659;49.050;8.530;2023-09-12T03:58:56;8.47;;;4.83;;
70388;SDS011;58659;49.050;8.530;2023-09-12T04:01:22;12.80;;;5.50;;
70388;SDS011;58659;49.050;8.530;2023-09-12T04:03:48;8.90;;;5.20;;
70388;SDS011;58659;49.050;8.530;2023-09-12T04:06:13;8.33;;;4.67;;
70388;SDS011;58659;49.050;8.530;2023-09-12T04:08:38;12.13;;;4.87;;
70388;SDS011;58659;49.050;8.530;2023-09-12T04:11:03;13.37;;;5.20;;
70388;SDS011;58659;49.050;8.530;2023-09-12T04:13:28;10.63;;;5.20;;
70388;SDS011;58659;49.050;8.530;2023-09-12T04:15:54;14.27;;;5.37;;
70388;SDS011;58659;49.050;8.530;2023-09-12T04:18:19;9.30;;;5.10;;
70388;SDS011;58659;49.050;8.530;2023-09-12T04:20:44;7.00;;;4.10;;
70388;SDS011;58659;49.050;8.530;2023-09-12T04:23:09;7.43;;;4.13;;
70388;SDS011;58659;49.050;8.530;2023-09-12T04:25:34;6.10;;;4.07;;
70388;SDS011;58659;49.050;8.530;2023-09-12T04:28:00;11.73;;;4.73;;
70388;SDS011;58659;49.050;8.530;2023-09-12T04:30:25;10.70;;;4.50;;
70388;SDS011;58659;49.050;8.530;2023-09-12T04:32:50;11.07;;;5.47;;
70388;SDS011;58659;49.050;8.530;2023-09-12T04:35:15;10.37;;;5.10;;
70388;SDS011;58659;49.050;8.530;2023-09-12T04:37:43;10.60;;;4.70;;
70388;SDS011;58659;49.050;8.530;2023-09-12T04:40:08;10.07;;;5.00;;
70388;SDS011;58659;49.050;8.530;2023-09-12T04:42:34;15.50;;;4.80;;
70388;SDS011;58659;49.050;8.530;2023-09-12T04:44:59;7.33;;;4.40;;
70388;SDS011;58659;49.050;8.530;2023-09-12T04:47:24;8.90;;;4.43;;
70388;SDS011;58659;49.050;8.530;2023-09-12T04:49:49;7.60;;;4.77;;
70388;SDS011;58659;49.050;8.530;2023-09-12T04:52:15;11.07;;;4.97;;
70388;SDS011;58659;49.050;8.530;2023-09-12T04:54:40;11.00;;;4.73;;
70388;SDS011;58659;49.050;8.530;2023-09-12T04:57:05;9.23;;;4.50;;
70388;SDS011;58659;49.050;8.530;2023-09-12T04:59:30;10.20;;;4.73;;
70388;SDS011;58659;49.050;8.530;2023-09-12T05:01:56;8.80;;;5.23;;
70388;SDS011;58659;49.050;8.530;2023-09-12T05:04:21;10.50;;;5.17;;
70388;SDS011;58659;49.050;8.530;2023-09-12T05:06:46;9.80;;;5.10;;
70388;SDS011;58659;49.050;8.530;2023-09-12T05:09:11;8.03;;;5.13;;
70388;SDS011;58659;49.050;8.530;2023-09-12T05:11:37;14.10;;;5.27;;
70388;SDS011;58659;49.050;8.530;2023-09-12T05:14:02;10.00;;;5.30;;
70388;SDS011;58659;49.050;8.530;2023-09-12T05:16:30;11.17;;;5.07;;
70388;SDS011;58659;49.050;8.530;2023-09-12T05:18:55;12.40;;;5.40;;
70388;SDS011;58659;49.050;8.530;2023-09-12T05:21:21;10.67;;;5.83;;
70388;SDS011;58659;49.050;8.530;2023-09-12T05:23:46;11.07;;;5.00;;
70388;SDS011;58659;49.050;8.530;2023-09-12T05:26:11;16.10;;;5.73;;
70388;SDS011;58659;49.050;8.530;2023-09-12T05:28:36;8.93;;;5.50;;
70388;SDS011;58659;49.050;8.530;2023-09-12T05:31:01;11.47;;;5.83;;
70388;SDS011;58659;49.050;8.530;2023-09-12T05:33:27;11.33;;;5.20;;
70388;SDS011;58659;49.050;8.530;2023-09-12T05:35:52;12.47;;;5.60;;
70388;SDS011;58659;49.050;8.530;2023-09-12T05:38:18;11.00;;;5.43;;
70388;SDS011;58659;49.050;8.530;2023-09-12T05:40:43;10.87;;;5.80;;
70388;SDS011;58659;49.050;8.530;2023-09-12T05:43:08;10.27;;;6.10;;
70388;SDS011;58659;49.050;8.530;2023-09-12T05:45:33;17.67;;;6.00;;
70388;SDS011;58659;49.050;8.530;2023-09-12T05:47:59;13.13;;;6.20;;
70388;SDS011;58659;49.050;8.530;2023-09-12T05:50:24;17.67;;;5.53;;
70388;SDS011;58659;49.050;8.530;2023-09-12T05:52:50;12.07;;;6.07;;
70388;SDS011;58659;49.050;8.530;2023-09-12T05:55:16;12.30;;;6.10;;
70388;SDS011;58659;49.050;8.530;2023-09-12T05:57:41;12.03;;;5.93;;
70388;SDS011;58659;49.050;8.530;2023-09-12T06:00:06;10.97;;;5.93;;
70388;SDS011;58659;49.050;8.530;2023-09-12T06:02:36;13.03;;;6.43;;
70388;SDS011;58659;49.050;8.530;2023-09-12T06:05:01;17.33;;;7.27;;
70388;SDS011;58659;49.050;8.530;2023-09-12T06:07:27;10.87;;;6.37;;
70388;SDS011;58659;49.050;8.530;2023-09-12T06:09:52;12.37;;;6.73;;
70388;SDS011;58659;49.050;8.530;2023-09-12T06:12:17;11.47;;;6.50;;
70388;SDS011;58659;49.050;8.530;2023-09-12T06:14:43;14.00;;;6.70;;
70388;SDS011;58659;49.050;8.530;2023-09-12T06:17:08;12.07;;;5.93;;
70388;SDS011;58659;49.050;8.530;2023-09-12T06:19:33;8.97;;;6.10;;
70388;SDS011;58659;49.050;8.530;2023-09-12T06:21:59;11.13;;;6.10;;
70388;SDS011;58659;49.050;8.530;2023-09-12T06:24:24;9.67;;;6.33;;
70388;SDS011;58659;49.050;8.530;2023-09-12T06:26:49;13.57;;;5.97;;
70388;SDS011;58659;49.050;8.530;2023-09-12T06:29:14;13.90;;;6.27;;
70388;SDS011;58659;49.050;8.530;2023-09-12T06:31:40;10.87;;;6.10;;
70388;SDS011;58659;49.050;8.530;2023-09-12T06:34:08;12.47;;;6.57;;
70388;SDS011;58659;49.050;8.530;2023-09-12T06:36:34;11.20;;;5.80;;
70388;SDS011;58659;49.050;8.530;2023-09-12T06:38:59;12.70;;;5.47;;
70388;SDS011;58659;49.050;8.530;2023-09-12T06:41:25;11.30;;;5.37;;
70388;SDS011;58659;49.050;8.530;2023-09-12T06:43:51;11.73;;;5.70;;
70388;SDS011;58659;49.050;8.530;2023-09-12T06:46:16;8.20;;;5.03;;
70388;SDS011;58659;49.050;8.530;2023-09-12T06:48:44;11.60;;;5.27;;
70388;SDS011;58659;49.050;8.530;2023-09-12T06:51:10;10.43;;;5.57;;
70388;SDS011;58659;49.050;8.530;2023-09-12T06:53:35;11.40;;;5.43;;
70388;SDS011;58659;49.050;8.530;2023-09-12T06:56:03;12.70;;;5.87;;
70388;SDS011;58659;49.050;8.530;2023-09-12T06:58:29;13.50;;;5.63;;
70388;SDS011;58659;49.050;8.530;2023-09-12T07:00:54;9.87;;;5.90;;
70388;SDS011;58659;49.050;8.530;2023-09-12T07:03:19;11.40;;;5.97;;
70388;SDS011;58659;49.050;8.530;2023-09-12T07:05:45;11.63;;;5.53;;
70388;SDS011;58659;49.050;8.530;2023-09-12T07:08:10;16.37;;;6.00;;
70388;SDS011;58659;49.050;8.530;2023-09-12T07:10:35;12.03;;;5.67;;
70388;SDS011;58659;49.050;8.530;2023-09-12T07:13:01;9.60;;;5.33;;
70388;SDS011;58659;49.050;8.530;2023-09-12T07:15:26;11.47;;;5.70;;
70388;SDS011;58659;49.050;8.530;2023-09-12T07:17:52;11.57;;;5.70;;
70388;SDS011;58659;49.050;8.530;2023-09-12T07:20:17;11.47;;;5.40;;
70388;SDS011;58659;49.050;8.530;2023-09-12T07:22:43;12.90;;;5.43;;
70388;SDS011;58659;49.050;8.530;2023-09-12T07:25:08;9.20;;;5.63;;
70388;SDS011;58659;49.050;8.530;2023-09-12T07:27:36;8.20;;;4.87;;
70388;SDS011;58659;49.050;8.530;2023-09-12T07:30:01;9.33;;;5.10;;
70388;SDS011;58659;49.050;8.530;2023-09-12T07:32:27;11.48;;;5.18;;
70388;SDS011;58659;49.050;8.530;2023-09-12T07:34:52;9.27;;;5.18;;
70388;SDS011;58659;49.050;8.530;2023-09-12T07:37:17;8.07;;;4.57;;
70388;SDS011;58659;49.050;8.530;2023-09-12T07:39:43;10.57;;;5.75;;
70388;SDS011;58659;49.050;8.530;2023-09-12T07:42:08;13.52;;;6.03;;
70388;SDS011;58659;49.050;8.530;2023-09-12T07:44:33;11.98;;;5.45;;
70388;SDS011;58659;49.050;8.530;2023-09-12T07:46:58;12.40;;;4.80;;
70388;SDS011;58659;49.050;8.530;2023-09-12T07:49:23;9.65;;;4.90;;
70388;SDS011;58659;49.050;8.530;2023-09-12T07:51:51;7.70;;;4.60;;
70388;SDS011;58659;49.050;8.530;2023-09-12T07:54:16;10.93;;;5.70;;
70388;SDS011;58659;49.050;8.530;2023-09-12T07:56:42;10.93;;;4.70;;
70388;SDS011;58659;49.050;8.530;2023-09-12T07:59:08;8.32;;;4.63;;
70388;SDS011;58659;49.050;8.530;2023-09-12T08:01:34;10.40;;;4.88;;
70388;SDS011;58659;49.050;8.530;2023-09-12T08:04:00;8.68;;;4.35;;
70388;SDS011;58659;49.050;8.530;2023-09-12T08:06:25;11.30;;;4.82;;
70388;SDS011;58659;49.050;8.530;2023-09-12T08:08:50;10.15;;;4.70;;
70388;SDS011;58659;49.050;8.530;2023-09-12T08:11:15;9.02;;;4.50;;
70388;SDS011;58659;49.050;8.530;2023-09-12T08:13:40;8.15;;;4.65;;
70388;SDS011;58659;49.050;8.530;2023-09-12T08:16:06;8.70;;;5.07;;
70388;SDS011;58659;49.050;8.530;2023-09-12T08:18:31;9.35;;;5.03;;
70388;SDS011;58659;49.050;8.530;2023-09-12T08:20:56;7.65;;;4.70;;
70388;SDS011;58659;49.050;8.530;2023-09-12T08:23:21;9.82;;;4.63;;
70388;SDS011;58659;49.050;8.530;2023-09-12T08:25:47;8.30;;;4.78;;
70388;SDS011;58659;49.050;8.530;2023-09-12T08:28:12;12.25;;;5.10;;
70388;SDS011;58659;49.050;8.530;2023-09-12T08:30:37;8.77;;;4.70;;
70388;SDS011;58659;49.050;8.530;2023-09-12T08:33:02;9.45;;;4.72;;
70388;SDS011;58659;49.050;8.530;2023-09-12T08:35:28;10.60;;;5.20;;
70388;SDS011;58659;49.050;8.530;2023-09-12T08:37:54;7.53;;;4.60;;
70388;SDS011;58659;49.050;8.530;2023-09-12T08:40:19;9.48;;;4.90;;
70388;SDS011;58659;49.050;8.530;2023-09-12T08:42:45;6.82;;;4.70;;
70388;SDS011;58659;49.050;8.530;2023-09-12T08:47:39;10.95;;;5.05;;
70388;SDS011;58659;49.050;8.530;2023-09-12T08:50:05;10.70;;;4.68;;
70388;SDS011;58659;49.050;8.530;2023-09-12T08:52:30;9.43;;;4.88;;
70388;SDS011;58659;49.050;8.530;2023-09-12T08:54:56;7.65;;;4.80;;
70388;SDS011;58659;49.050;8.530;2023-09-12T08:57:21;6.82;;;4.63;;
70388;SDS011;58659;49.050;8.530;2023-09-12T08:59:46;6.68;;;4.93;;
70388;SDS011;58659;49.050;8.530;2023-09-12T09:02:13;8.02;;;4.88;;
70388;SDS011;58659;49.050;8.530;2023-09-12T09:04:39;6.85;;;4.55;;
70388;SDS011;58659;49.050;8.530;2023-09-12T09:07:04;11.13;;;4.93;;
70388;SDS011;58659;49.050;8.530;2023-09-12T09:09:30;7.85;;;4.55;;
70388;SDS011;58659;49.050;8.530;2023-09-12T09:11:56;9.73;;;4.53;;
70388;SDS011;58659;49.050;8.530;2023-09-12T09:14:21;9.73;;;4.50;;
70388;SDS011;58659;49.050;8.530;2023-09-12T09:16:46;13.60;;;4.57;;
70388;SDS011;58659;49.050;8.530;2023-09-12T09:19:11;9.35;;;4.90;;
70388;SDS011;58659;49.050;8.530;2023-09-12T09:21:37;7.78;;;4.82;;
70388;SDS011;58659;49.050;8.530;2023-09-12T09:24:07;6.78;;;4.82;;
70388;SDS011;58659;49.050;8.530;2023-09-12T09:26:48;7.00;;;5.00;;
70388;SDS011;58659;49.050;8.530;2023-09-12T09:29:15;7.35;;;4.43;;
70388;SDS011;58659;49.050;8.530;2023-09-12T09:31:41;8.60;;;5.28;;
70388;SDS011;58659;49.050;8.530;2023-09-12T09:34:10;7.10;;;4.80;;
70388;SDS011;58659;49.050;8.530;2023-09-12T09:36:36;9.75;;;5.00;;
70388;SDS011;58659;49.050;8.530;2023-09-12T09:39:01;8.63;;;4.78;;
70388;SDS011;58659;49.050;8.530;2023-09-12T09:41:29;8.02;;;4.68;;
70388;SDS011;58659;49.050;8.530;2023-09-12T09:43:54;9.48;;;4.82;;
70388;SDS011;58659;49.050;8.530;2023-09-12T09:46:20;7.85;;;5.00;;
70388;SDS011;58659;49.050;8.530;2023-09-12T09:48:48;8.82;;;4.97;;
70388;SDS011;58659;49.050;8.530;2023-09-12T09:51:14;7.82;;;4.68;;
70388;SDS011;58659;49.050;8.530;2023-09-12T09:53:39;9.75;;;5.20;;
70388;SDS011;58659;49.050;8.530;2023-09-12T09:56:08;8.93;;;4.75;;
70388;SDS011;58659;49.050;8.530;2023-09-12T09:58:33;9.25;;;5.60;;
70388;SDS011;58659;49.050;8.530;2023-09-12T10:00:59;8.70;;;5.30;;
70388;SDS011;58659;49.050;8.530;2023-09-12T10:03:25;9.40;;;5.40;;
70388;SDS011;58659;49.050;8.530;2023-09-12T10:05:50;8.40;;;5.35;;
70388;SDS011;58659;49.050;8.530;2023-09-12T10:08:16;9.30;;;5.35;;
70388;SDS011;58659;49.050;8.530;2023-09-12T10:10:42;10.10;;;5.00;;
70388;SDS011;58659;49.050;8.530;2023-09-12T10:13:07;9.18;;;5.50;;
70388;SDS011;58659;49.050;8.530;2023-09-12T10:15:33;9.48;;;5.32;;
70388;SDS011;58659;49.050;8.530;2023-09-12T10:18:00;13.38;;;5.60;;
70388;SDS011;58659;49.050;8.530;2023-09-12T10:20:38;11.32;;;5.20;;
70388;SDS011;58659;49.050;8.530;2023-09-12T10:25:36;8.45;;;5.60;;
70388;SDS011;58659;49.050;8.530;2023-09-12T10:28:03;10.75;;;5.50;;
70388;SDS011;58659;49.050;8.530;2023-09-12T10:30:28;9.60;;;5.20;;
70388;SDS011;58659;49.050;8.530;2023-09-12T10:32:54;10.23;;;5.45;;
70388;SDS011;58659;49.050;8.530;2023-09-12T10:35:19;6.05;;;4.40;;
70388;SDS011;58659;49.050;8.530;2023-09-12T10:37:45;7.13;;;4.75;;
70388;SDS011;58659;49.050;8.530;2023-09-12T10:40:11;9.45;;;5.15;;
70388;SDS011;58659;49.050;8.530;2023-09-12T10:42:37;10.45;;;5.40;;
70388;SDS011;58659;49.050;8.530;2023-09-12T10:45:04;11.00;;;6.13;;
70388;SDS011;58659;49.050;8.530;2023-09-12T10:47:32;8.45;;;5.13;;
70388;SDS011;58659;49.050;8.530;2023-09-12T10:49:57;10.32;;;4.97;;
70388;SDS011;58659;49.050;8.530;2023-09-12T10:52:26;7.57;;;4.60;;
70388;SDS011;58659;49.050;8.530;2023-09-12T10:54:52;9.25;;;5.43;;
70388;SDS011;58659;49.050;8.530;2023-09-12T10:57:17;7.97;;;5.47;;
70388;SDS011;58659;49.050;8.530;2023-09-12T11:00:28;8.30;;;5.03;;
70388;SDS011;58659;49.050;8.530;2023-09-12T11:02:30;10.25;;;5.25;;
70388;SDS011;58659;49.050;8.530;2023-09-12T11:04:55;8.93;;;4.93;;
70388;SDS011;58659;49.050;8.530;2023-09-12T11:07:29;8.65;;;4.95;;
70388;SDS011;58659;49.050;8.530;2023-09-12T11:12:40;7.40;;;4.75;;
70388;SDS011;58659;49.050;8.530;2023-09-12T11:15:05;10.18;;;5.32;;
70388;SDS011;58659;49.050;8.530;2023-09-12T11:17:31;9.18;;;4.80;;
70388;SDS011;58659;49.050;8.530;2023-09-12T11:20:02;6.75;;;4.60;;
70388;SDS011;58659;49.050;8.530;2023-09-12T11:22:34;10.50;;;5.20;;
70388;SDS011;58659;49.050;8.530;2023-09-12T11:25:03;7.50;;;4.82;;
70388;SDS011;58659;49.050;8.530;2023-09-12T11:28:01;6.97;;;5.20;;
70388;SDS011;58659;49.050;8.530;2023-09-12T11:30:28;7.63;;;5.28;;
70388;SDS011;58659;49.050;8.530;2023-09-12T11:32:56;7.53;;;5.03;;
70388;SDS011;58659;49.050;8.530;2023-09-12T11:35:25;7.25;;;4.68;;
70388;SDS011;58659;49.050;8.530;2023-09-12T11:37:51;10.13;;;5.00;;
70388;SDS011;58659;49.050;8.530;2023-09-12T11:42:43;7.50;;;4.63;;
70388;SDS011;58659;49.050;8.530;2023-09-12T11:45:09;10.30;;;5.03;;
70388;SDS011;58659;49.050;8.530;2023-09-12T11:47:34;6.22;;;4.50;;
70388;SDS011;58659;49.050;8.530;2023-09-12T11:50:04;9.45;;;4.45;;
70388;SDS011;58659;49.050;8.530;2023-09-12T11:52:29;6.60;;;5.30;;
70388;SDS011;58659;49.050;8.530;2023-09-12T11:54:55;6.73;;;4.53;;
70388;SDS011;58659;49.050;8.530;2023-09-12T11:57:20;9.37;;;5.53;;
70388;SDS011;58659;49.050;8.530;2023-09-12T11:59:45;8.27;;;4.40;;
70388;SDS011;58659;49.050;8.530;2023-09-12T12:02:13;8.43;;;5.13;;
70388;SDS011;58659;49.050;8.530;2023-09-12T12:04:38;7.75;;;4.97;;
70388;SDS011;58659;49.050;8.530;2023-09-12T12:07:04;6.70;;;4.70;;
70388;SDS011;58659;49.050;8.530;2023-09-12T12:09:29;6.60;;;4.68;;
70388;SDS011;58659;49.050;8.530;2023-09-12T12:11:54;14.50;;;4.90;;
70388;SDS011;58659;49.050;8.530;2023-09-12T12:14:20;8.38;;;5.10;;
70388;SDS011;58659;49.050;8.530;2023-09-12T12:16:46;7.32;;;4.65;;
70388;SDS011;58659;49.050;8.530;2023-09-12T12:19:12;9.25;;;5.05;;
70388;SDS011;58659;49.050;8.530;2023-09-12T12:21:38;6.10;;;4.50;;
70388;SDS011;58659;49.050;8.530;2023-09-12T12:24:03;6.22;;;4.45;;
70388;SDS011;58659;49.050;8.530;2023-09-12T12:26:32;9.15;;;4.30;;
70388;SDS011;58659;49.050;8.530;2023-09-12T12:28:58;6.05;;;4.47;;
70388;SDS011;58659;49.050;8.530;2023-09-12T12:31:24;11.05;;;4.55;;
70388;SDS011;58659;49.050;8.530;2023-09-12T12:33:55;9.60;;;4.85;;
70388;SDS011;58659;49.050;8.530;2023-09-12T12:36:20;8.13;;;4.18;;
70388;SDS011;58659;49.050;8.530;2023-09-12T12:38:47;6.70;;;4.30;;
70388;SDS011;58659;49.050;8.530;2023-09-12T12:41:14;8.23;;;4.20;;
70388;SDS011;58659;49.050;8.530;2023-09-12T12:43:40;5.57;;;4.00;;
70388;SDS011;58659;49.050;8.530;2023-09-12T12:46:11;6.60;;;3.88;;
70388;SDS011;58659;49.050;8.530;2023-09-12T12:48:37;7.88;;;4.10;;
70388;SDS011;58659;49.050;8.530;2023-09-12T12:53:44;5.13;;;3.85;;
70388;SDS011;58659;49.050;8.530;2023-09-12T12:56:16;5.95;;;4.50;;
70388;SDS011;58659;49.050;8.530;2023-09-12T12:58:50;5.07;;;3.75;;
70388;SDS011;58659;49.050;8.530;2023-09-12T13:01:15;4.68;;;3.78;;
70388;SDS011;58659;49.050;8.530;2023-09-12T13:03:41;6.95;;;4.15;;
70388;SDS011;58659;49.050;8.530;2023-09-12T13:06:06;4.70;;;3.83;;
70388;SDS011;58659;49.050;8.530;2023-09-12T13:08:32;6.20;;;3.95;;
70388;SDS011;58659;49.050;8.530;2023-09-12T13:10:59;6.03;;;4.05;;
70388;SDS011;58659;49.050;8.530;2023-09-12T13:13:25;7.07;;;3.97;;
70388;SDS011;58659;49.050;8.530;2023-09-12T13:15:50;5.13;;;3.70;;
70388;SDS011;58659;49.050;8.530;2023-09-12T13:18:15;8.45;;;3.90;;
70388;SDS011;58659;49.050;8.530;2023-09-12T13:20:40;6.97;;;3.80;;
70388;SDS011;58659;49.050;8.530;2023-09-12T13:23:05;5.47;;;3.90;;
70388;SDS011;58659;49.050;8.530;2023-09-12T13:25:31;4.90;;;3.75;;
70388;SDS011;58659;49.050;8.530;2023-09-12T13:27:56;5.15;;;3.95;;
70388;SDS011;58659;49.050;8.530;2023-09-12T13:30:21;5.80;;;3.70;;
70388;SDS011;58659;49.050;8.530;2023-09-12T13:32:47;6.63;;;4.40;;
70388;SDS011;58659;49.050;8.530;2023-09-12T13:35:12;5.47;;;3.80;;
70388;SDS011;58659;49.050;8.530;2023-09-12T13:37:37;5.05;;;3.72;;
70388;SDS011;58659;49.050;8.530;2023-09-12T13:40:02;4.40;;;3.70;;
70388;SDS011;58659;49.050;8.530;2023-09-12T13:42:28;6.57;;;3.78;;
70388;SDS011;58659;49.050;8.530;2023-09-12T13:44:56;5.53;;;3.75;;
70388;SDS011;58659;49.050;8.530;2023-09-12T13:47:21;8.40;;;4.10;;
70388;SDS011;58659;49.050;8.530;2023-09-12T13:49:47;6.40;;;3.85;;
70388;SDS011;58659;49.050;8.530;2023-09-12T13:52:12;4.38;;;3.47;;
70388;SDS011;58659;49.050;8.530;2023-09-12T13:54:37;6.07;;;3.87;;
70388;SDS011;58659;49.050;8.530;2023-09-12T13:57:02;4.27;;;3.27;;
70388;SDS011;58659;49.050;8.530;2023-09-12T13:59:27;7.30;;;3.88;;
70388;SDS011;58659;49.050;8.530;2023-09-12T14:01:53;8.00;;;4.20;;
70388;SDS011;58659;49.050;8.530;2023-09-12T14:04:18;4.63;;;3.50;;
70388;SDS011;58659;49.050;8.530;2023-09-12T14:06:43;5.50;;;3.63;;
70388;SDS011;58659;49.050;8.530;2023-09-12T14:09:08;6.10;;;3.90;;
70388;SDS011;58659;49.050;8.530;2023-09-12T14:11:34;7.53;;;4.45;;
70388;SDS011;58659;49.050;8.530;2023-09-12T14:14:00;7.97;;;3.88;;
70388;SDS011;58659;49.050;8.530;2023-09-12T14:16:25;4.32;;;3.55;;
70388;SDS011;58659;49.050;8.530;2023-09-12T14:18:50;4.90;;;3.67;;
70388;SDS011;58659;49.050;8.530;2023-09-12T14:21:15;4.50;;;3.77;;
70388;SDS011;58659;49.050;8.530;2023-09-12T14:23:40;6.93;;;3.60;;
70388;SDS011;58659;49.050;8.530;2023-09-12T14:26:06;5.05;;;3.55;;
70388;SDS011;58659;49.050;8.530;2023-09-12T14:28:31;4.60;;;3.60;;
70388;SDS011;58659;49.050;8.530;2023-09-12T14:30:59;6.25;;;4.15;;
70388;SDS011;58659;49.050;8.530;2023-09-12T14:33:24;5.15;;;3.65;;
70388;SDS011;58659;49.050;8.530;2023-09-12T14:35:49;5.60;;;3.80;;
70388;SDS011;58659;49.050;8.530;2023-09-12T14:38:14;4.27;;;3.40;;
70388;SDS011;58659;49.050;8.530;2023-09-12T14:40:39;4.50;;;3.80;;
70388;SDS011;58659;49.050;8.530;2023-09-12T14:43:05;5.93;;;3.63;;
70388;SDS011;58659;49.050;8.530;2023-09-12T14:45:30;6.72;;;3.65;;
70388;SDS011;58659;49.050;8.530;2023-09-12T14:47:55;7.35;;;3.95;;
70388;SDS011;58659;49.050;8.530;2023-09-12T14:50:21;4.85;;;3.78;;
70388;SDS011;58659;49.050;8.530;2023-09-12T14:52:49;8.15;;;3.88;;